sensor_id;sensor_type;location;lat;lon;timestamp;temperature;humidity
71208;DHT22;58938;49.868;8.646;2022-11-20T00:01:48;7.10;66.30
71208;DHT22;58938;49.868;8.646;2022-11-20T00:04:14;7.10;66.30
71208;DHT22;58938;49.868;8.646;2022-11-20T00:06:39;7.10;66.30
71208;DHT22;58938;49.868;8.646;2022-11-20T00:09:05;7.00;66.30
71208;DHT22;58938;49.868;8.646;2022-11-20T00:11:31;7.10;66.10
71208;DHT22;58938;49.868;8.646;2022-11-20T00:13:59;7.00;66.20
71208;DHT22;58938;49.868;8.646;2022-11-20T00:16:26;7.00;66.10
71208;DHT22;58938;49.868;8.646;2022-11-20T00:18:53;7.00;66.20
71208;DHT22;58938;49.868;8.646;2022-11-20T00:21:24;7.00;66.30
71208;DHT22;58938;49.868;8.646;2022-11-20T00:23:51;7.00;66.20
71208;DHT22;58938;49.868;8.646;2022-11-20T00:26:20;7.00;66.30
71208;DHT22;58938;49.868;8.646;2022-11-20T00:28:54;7.00;66.40
71208;DHT22;58938;49.868;8.646;2022-11-20T00:31:20;7.00;66.40
71208;DHT22;58938;49.868;8.646;2022-11-20T00:33:46;7.00;66.50
71208;DHT22;58938;49.868;8.646;2022-11-20T00:36:14;7.10;66.50
71208;DHT22;58938;49.868;8.646;2022-11-20T00:38:40;7.10;66.50
71208;DHT22;58938;49.868;8.646;2022-11-20T00:41:08;7.10;66.50
71208;DHT22;58938;49.868;8.646;2022-11-20T00:43:34;7.10;66.50
71208;DHT22;58938;49.868;8.646;2022-11-20T00:46:05;7.10;66.60
71208;DHT22;58938;49.868;8.646;2022-11-20T00:48:31;7.10;66.50
71208;DHT22;58938;49.868;8.646;2022-11-20T00:50:57;7.10;66.50
71208;DHT22;58938;49.868;8.646;2022-11-20T00:53:23;7.10;66.50
71208;DHT22;58938;49.868;8.646;2022-11-20T00:55:53;7.10;66.60
71208;DHT22;58938;49.868;8.646;2022-11-20T00:58:20;7.10;66.60
71208;DHT22;58938;49.868;8.646;2022-11-20T01:00:45;7.10;66.60
71208;DHT22;58938;49.868;8.646;2022-11-20T01:03:11;7.20;66.60
71208;DHT22;58938;49.868;8.646;2022-11-20T01:05:37;7.10;66.60
71208;DHT22;58938;49.868;8.646;2022-11-20T01:08:02;7.10;66.60
71208;DHT22;58938;49.868;8.646;2022-11-20T01:10:28;7.10;66.60
71208;DHT22;58938;49.868;8.646;2022-11-20T01:12:54;7.10;66.70
71208;DHT22;58938;49.868;8.646;2022-11-20T01:15:39;7.10;66.70
71208;DHT22;58938;49.868;8.646;2022-11-20T01:18:05;7.20;66.70
71208;DHT22;58938;49.868;8.646;2022-11-20T01:20:34;7.20;66.80
71208;DHT22;58938;49.868;8.646;2022-11-20T01:23:01;7.20;66.70
71208;DHT22;58938;49.868;8.646;2022-11-20T01:25:27;7.20;66.80
71208;DHT22;58938;49.868;8.646;2022-11-20T01:27:53;7.20;66.80
71208;DHT22;58938;49.868;8.646;2022-11-20T01:30:18;7.20;66.80
71208;DHT22;58938;49.868;8.646;2022-11-20T01:32:44;7.20;66.80
71208;DHT22;58938;49.868;8.646;2022-11-20T01:35:09;7.20;66.80
71208;DHT22;58938;49.868;8.646;2022-11-20T01:37:35;7.20;66.80
71208;DHT22;58938;49.868;8.646;2022-11-20T01:40:01;7.20;66.80
71208;DHT22;58938;49.868;8.646;2022-11-20T01:42:27;7.20;66.80
71208;DHT22;58938;49.868;8.646;2022-11-20T01:48:22;7.20;66.80
71208;DHT22;58938;49.868;8.646;2022-11-20T01:50:50;7.20;66.70
71208;DHT22;58938;49.868;8.646;2022-11-20T01:53:18;7.20;66.80
71208;DHT22;58938;49.868;8.646;2022-11-20T01:55:50;7.20;67.00
71208;DHT22;58938;49.868;8.646;2022-11-20T01:58:20;7.20;66.90
71208;DHT22;58938;49.868;8.646;2022-11-20T02:00:46;7.20;66.90
71208;DHT22;58938;49.868;8.646;2022-11-20T02:03:15;7.20;66.90
71208;DHT22;58938;49.868;8.646;2022-11-20T02:06:15;7.30;66.80
71208;DHT22;58938;49.868;8.646;2022-11-20T02:08:42;7.20;66.80
71208;DHT22;58938;49.868;8.646;2022-11-20T02:11:09;7.20;66.90
71208;DHT22;58938;49.868;8.646;2022-11-20T02:13:34;7.20;66.90
71208;DHT22;58938;49.868;8.646;2022-11-20T02:16:33;7.20;66.90
71208;DHT22;58938;49.868;8.646;2022-11-20T02:19:02;7.10;67.00
71208;DHT22;58938;49.868;8.646;2022-11-20T02:24:21;7.10;67.00
71208;DHT22;58938;49.868;8.646;2022-11-20T02:26:54;7.10;67.00
71208;DHT22;58938;49.868;8.646;2022-11-20T02:29:48;7.10;67.10
71208;DHT22;58938;49.868;8.646;2022-11-20T02:32:19;7.10;67.10
71208;DHT22;58938;49.868;8.646;2022-11-20T02:34:45;7.00;67.10
71208;DHT22;58938;49.868;8.646;2022-11-20T02:37:11;7.10;67.10
71208;DHT22;58938;49.868;8.646;2022-11-20T02:39:37;7.10;67.10
71208;DHT22;58938;49.868;8.646;2022-11-20T02:42:03;7.10;67.20
71208;DHT22;58938;49.868;8.646;2022-11-20T02:44:28;7.10;67.10
71208;DHT22;58938;49.868;8.646;2022-11-20T02:46:57;7.10;67.10
71208;DHT22;58938;49.868;8.646;2022-11-20T02:49:23;7.00;67.20
71208;DHT22;58938;49.868;8.646;2022-11-20T02:51:49;7.00;67.20
71208;DHT22;58938;49.868;8.646;2022-11-20T02:54:15;7.00;67.20
71208;DHT22;58938;49.868;8.646;2022-11-20T02:56:40;7.00;67.20
71208;DHT22;58938;49.868;8.646;2022-11-20T02:59:06;7.00;67.20
71208;DHT22;58938;49.868;8.646;2022-11-20T03:01:32;7.00;67.10
71208;DHT22;58938;49.868;8.646;2022-11-20T03:03:58;6.90;67.20
71208;DHT22;58938;49.868;8.646;2022-11-20T03:06:23;6.90;67.20
71208;DHT22;58938;49.868;8.646;2022-11-20T03:08:49;7.00;67.30
71208;DHT22;58938;49.868;8.646;2022-11-20T03:11:14;7.00;67.20
71208;DHT22;58938;49.868;8.646;2022-11-20T03:13:40;6.90;67.30
71208;DHT22;58938;49.868;8.646;2022-11-20T03:16:10;6.90;67.20
71208;DHT22;58938;49.868;8.646;2022-11-20T03:18:37;6.90;67.30
71208;DHT22;58938;49.868;8.646;2022-11-20T03:21:03;6.90;67.30
71208;DHT22;58938;49.868;8.646;2022-11-20T03:23:30;6.90;67.30
71208;DHT22;58938;49.868;8.646;2022-11-20T03:26:06;6.90;67.20
71208;DHT22;58938;49.868;8.646;2022-11-20T03:28:32;6.80;67.50
71208;DHT22;58938;49.868;8.646;2022-11-20T03:30:58;6.90;67.50
71208;DHT22;58938;49.868;8.646;2022-11-20T03:33:23;6.90;67.60
71208;DHT22;58938;49.868;8.646;2022-11-20T03:35:49;6.90;67.60
71208;DHT22;58938;49.868;8.646;2022-11-20T03:38:14;6.90;67.60
71208;DHT22;58938;49.868;8.646;2022-11-20T03:40:40;6.90;67.60
71208;DHT22;58938;49.868;8.646;2022-11-20T03:43:05;7.00;67.60
71208;DHT22;58938;49.868;8.646;2022-11-20T03:45:31;7.00;67.60
71208;DHT22;58938;49.868;8.646;2022-11-20T03:47:57;7.00;67.60
71208;DHT22;58938;49.868;8.646;2022-11-20T03:50:22;6.90;67.50
71208;DHT22;58938;49.868;8.646;2022-11-20T03:52:48;6.90;67.50
71208;DHT22;58938;49.868;8.646;2022-11-20T03:55:13;6.90;67.60
71208;DHT22;58938;49.868;8.646;2022-11-20T03:57:39;6.90;67.60
71208;DHT22;58938;49.868;8.646;2022-11-20T04:00:05;6.90;67.70
71208;DHT22;58938;49.868;8.646;2022-11-20T04:02:31;6.90;67.70
71208;DHT22;58938;49.868;8.646;2022-11-20T04:04:56;6.90;67.80
71208;DHT22;58938;49.868;8.646;2022-11-20T04:07:22;6.90;67.80
71208;DHT22;58938;49.868;8.646;2022-11-20T04:09:47;6.90;67.80
71208;DHT22;58938;49.868;8.646;2022-11-20T04:12:13;7.00;67.90
71208;DHT22;58938;49.868;8.646;2022-11-20T04:14:39;7.00;67.90
71208;DHT22;58938;49.868;8.646;2022-11-20T04:17:04;7.00;67.80
71208;DHT22;58938;49.868;8.646;2022-11-20T04:19:30;7.00;67.80
71208;DHT22;58938;49.868;8.646;2022-11-20T04:21:55;7.00;67.80
71208;DHT22;58938;49.868;8.646;2022-11-20T04:24:21;7.00;67.90
71208;DHT22;58938;49.868;8.646;2022-11-20T04:26:46;7.00;67.90
71208;DHT22;58938;49.868;8.646;2022-11-20T04:29:12;7.00;67.80
71208;DHT22;58938;49.868;8.646;2022-11-20T04:31:38;7.00;67.80
71208;DHT22;58938;49.868;8.646;2022-11-20T04:34:05;7.00;67.80
71208;DHT22;58938;49.868;8.646;2022-11-20T04:36:31;7.00;67.80
71208;DHT22;58938;49.868;8.646;2022-11-20T04:38:59;7.00;67.80
71208;DHT22;58938;49.868;8.646;2022-11-20T04:41:31;7.00;67.70
71208;DHT22;58938;49.868;8.646;2022-11-20T04:43:59;7.00;67.80
71208;DHT22;58938;49.868;8.646;2022-11-20T04:46:28;7.00;67.60
71208;DHT22;58938;49.868;8.646;2022-11-20T04:48:55;7.00;67.70
71208;DHT22;58938;49.868;8.646;2022-11-20T04:51:21;7.00;67.80
71208;DHT22;58938;49.868;8.646;2022-11-20T04:53:49;7.00;67.80
71208;DHT22;58938;49.868;8.646;2022-11-20T04:56:15;7.00;67.80
71208;DHT22;58938;49.868;8.646;2022-11-20T04:58:41;7.00;67.80
71208;DHT22;58938;49.868;8.646;2022-11-20T05:01:12;7.00;67.80
71208;DHT22;58938;49.868;8.646;2022-11-20T05:03:42;7.00;67.80
71208;DHT22;58938;49.868;8.646;2022-11-20T05:06:10;7.00;67.70
71208;DHT22;58938;49.868;8.646;2022-11-20T05:08:35;7.00;67.70
71208;DHT22;58938;49.868;8.646;2022-11-20T05:11:03;7.00;67.80
71208;DHT22;58938;49.868;8.646;2022-11-20T05:13:29;7.00;67.80
71208;DHT22;58938;49.868;8.646;2022-11-20T05:15:55;7.00;67.70
71208;DHT22;58938;49.868;8.646;2022-11-20T05:18:21;6.90;67.70
71208;DHT22;58938;49.868;8.646;2022-11-20T05:20:46;6.90;67.90
71208;DHT22;58938;49.868;8.646;2022-11-20T05:23:12;6.90;67.80
71208;DHT22;58938;49.868;8.646;2022-11-20T05:25:37;6.90;67.80
71208;DHT22;58938;49.868;8.646;2022-11-20T05:28:03;6.90;67.90
71208;DHT22;58938;49.868;8.646;2022-11-20T05:30:30;6.90;67.90
71208;DHT22;58938;49.868;8.646;2022-11-20T05:32:55;6.90;68.00
71208;DHT22;58938;49.868;8.646;2022-11-20T05:35:21;6.90;68.10
71208;DHT22;58938;49.868;8.646;2022-11-20T05:37:46;6.90;68.10
71208;DHT22;58938;49.868;8.646;2022-11-20T05:40:12;7.00;68.10
71208;DHT22;58938;49.868;8.646;2022-11-20T05:42:38;6.90;68.00
71208;DHT22;58938;49.868;8.646;2022-11-20T05:45:04;6.90;68.00
71208;DHT22;58938;49.868;8.646;2022-11-20T05:47:34;6.90;68.10
71208;DHT22;58938;49.868;8.646;2022-11-20T05:50:00;6.90;68.10
71208;DHT22;58938;49.868;8.646;2022-11-20T05:52:29;6.90;68.10
71208;DHT22;58938;49.868;8.646;2022-11-20T05:54:56;6.90;68.20
71208;DHT22;58938;49.868;8.646;2022-11-20T05:57:21;6.90;68.30
71208;DHT22;58938;49.868;8.646;2022-11-20T05:59:47;6.90;68.30
71208;DHT22;58938;49.868;8.646;2022-11-20T06:02:12;6.90;68.20
71208;DHT22;58938;49.868;8.646;2022-11-20T06:04:38;7.00;68.20
71208;DHT22;58938;49.868;8.646;2022-11-20T06:07:07;7.00;68.20
71208;DHT22;58938;49.868;8.646;2022-11-20T06:09:32;6.90;68.10
71208;DHT22;58938;49.868;8.646;2022-11-20T06:11:58;6.90;68.00
71208;DHT22;58938;49.868;8.646;2022-11-20T06:14:24;6.90;68.20
71208;DHT22;58938;49.868;8.646;2022-11-20T06:16:49;6.90;68.20
71208;DHT22;58938;49.868;8.646;2022-11-20T06:19:15;6.90;68.30
71208;DHT22;58938;49.868;8.646;2022-11-20T06:21:41;6.90;68.30
71208;DHT22;58938;49.868;8.646;2022-11-20T06:24:09;6.90;68.30
71208;DHT22;58938;49.868;8.646;2022-11-20T06:26:34;6.90;68.20
71208;DHT22;58938;49.868;8.646;2022-11-20T06:29:00;6.90;68.10
71208;DHT22;58938;49.868;8.646;2022-11-20T06:31:26;6.90;68.20
71208;DHT22;58938;49.868;8.646;2022-11-20T06:33:52;6.90;68.20
71208;DHT22;58938;49.868;8.646;2022-11-20T06:36:19;6.80;68.20
71208;DHT22;58938;49.868;8.646;2022-11-20T06:38:45;6.80;68.30
71208;DHT22;58938;49.868;8.646;2022-11-20T06:41:14;6.80;68.40
71208;DHT22;58938;49.868;8.646;2022-11-20T06:43:40;6.70;68.40
71208;DHT22;58938;49.868;8.646;2022-11-20T06:46:05;6.70;68.40
71208;DHT22;58938;49.868;8.646;2022-11-20T06:48:31;6.70;68.50
71208;DHT22;58938;49.868;8.646;2022-11-20T06:50:58;6.70;68.50
71208;DHT22;58938;49.868;8.646;2022-11-20T06:53:24;6.80;68.60
71208;DHT22;58938;49.868;8.646;2022-11-20T06:55:51;6.80;68.70
71208;DHT22;58938;49.868;8.646;2022-11-20T06:58:17;6.80;68.70
71208;DHT22;58938;49.868;8.646;2022-11-20T07:00:43;6.90;68.60
71208;DHT22;58938;49.868;8.646;2022-11-20T07:03:10;6.90;68.60
71208;DHT22;58938;49.868;8.646;2022-11-20T07:05:36;6.90;68.60
71208;DHT22;58938;49.868;8.646;2022-11-20T07:08:03;6.90;68.50
71208;DHT22;58938;49.868;8.646;2022-11-20T07:10:30;6.90;68.40
71208;DHT22;58938;49.868;8.646;2022-11-20T07:12:56;6.80;68.30
71208;DHT22;58938;49.868;8.646;2022-11-20T07:15:23;6.80;68.50
71208;DHT22;58938;49.868;8.646;2022-11-20T07:17:49;6.80;68.50
71208;DHT22;58938;49.868;8.646;2022-11-20T07:20:15;6.80;68.60
71208;DHT22;58938;49.868;8.646;2022-11-20T07:22:42;6.80;68.50
71208;DHT22;58938;49.868;8.646;2022-11-20T07:25:10;6.80;68.50
71208;DHT22;58938;49.868;8.646;2022-11-20T07:27:36;6.70;68.50
71208;DHT22;58938;49.868;8.646;2022-11-20T07:30:03;6.70;68.70
71208;DHT22;58938;49.868;8.646;2022-11-20T07:32:29;6.70;68.70
71208;DHT22;58938;49.868;8.646;2022-11-20T07:34:54;6.70;68.70
71208;DHT22;58938;49.868;8.646;2022-11-20T07:37:20;6.70;68.80
71208;DHT22;58938;49.868;8.646;2022-11-20T07:39:45;6.80;68.90
71208;DHT22;58938;49.868;8.646;2022-11-20T07:42:11;6.70;68.90
71208;DHT22;58938;49.868;8.646;2022-11-20T07:44:37;6.80;68.90
71208;DHT22;58938;49.868;8.646;2022-11-20T07:47:03;6.80;69.00
71208;DHT22;58938;49.868;8.646;2022-11-20T07:49:29;6.80;69.00
71208;DHT22;58938;49.868;8.646;2022-11-20T07:51:54;6.90;69.00
71208;DHT22;58938;49.868;8.646;2022-11-20T07:54:20;6.90;69.00
71208;DHT22;58938;49.868;8.646;2022-11-20T07:56:47;6.90;68.80
71208;DHT22;58938;49.868;8.646;2022-11-20T07:59:12;6.80;68.80
71208;DHT22;58938;49.868;8.646;2022-11-20T08:01:39;6.80;68.80
71208;DHT22;58938;49.868;8.646;2022-11-20T08:04:05;6.80;68.80
71208;DHT22;58938;49.868;8.646;2022-11-20T08:06:31;6.80;68.80
71208;DHT22;58938;49.868;8.646;2022-11-20T08:08:56;6.80;68.90
71208;DHT22;58938;49.868;8.646;2022-11-20T08:11:22;6.80;68.90
71208;DHT22;58938;49.868;8.646;2022-11-20T08:14:06;6.80;69.00
71208;DHT22;58938;49.868;8.646;2022-11-20T08:16:46;6.90;69.00
71208;DHT22;58938;49.868;8.646;2022-11-20T08:19:17;6.90;69.00
71208;DHT22;58938;49.868;8.646;2022-11-20T08:21:43;6.90;69.00
71208;DHT22;58938;49.868;8.646;2022-11-20T08:24:10;7.00;69.00
71208;DHT22;58938;49.868;8.646;2022-11-20T08:26:37;7.00;69.00
71208;DHT22;58938;49.868;8.646;2022-11-20T08:29:04;7.00;68.90
71208;DHT22;58938;49.868;8.646;2022-11-20T08:31:30;7.00;68.90
71208;DHT22;58938;49.868;8.646;2022-11-20T08:33:56;7.10;68.90
71208;DHT22;58938;49.868;8.646;2022-11-20T08:36:22;7.10;68.90
71208;DHT22;58938;49.868;8.646;2022-11-20T08:38:49;7.10;68.80
71208;DHT22;58938;49.868;8.646;2022-11-20T08:41:16;7.10;68.80
71208;DHT22;58938;49.868;8.646;2022-11-20T08:44:05;7.10;68.90
71208;DHT22;58938;49.868;8.646;2022-11-20T08:46:40;7.10;69.00
71208;DHT22;58938;49.868;8.646;2022-11-20T08:49:08;7.10;69.10
71208;DHT22;58938;49.868;8.646;2022-11-20T08:51:35;7.20;69.10
71208;DHT22;58938;49.868;8.646;2022-11-20T08:54:01;7.20;69.20
71208;DHT22;58938;49.868;8.646;2022-11-20T08:56:27;7.30;69.20
71208;DHT22;58938;49.868;8.646;2022-11-20T08:58:52;7.30;69.20
71208;DHT22;58938;49.868;8.646;2022-11-20T09:01:19;7.40;69.30
71208;DHT22;58938;49.868;8.646;2022-11-20T09:03:45;7.40;69.40
71208;DHT22;58938;49.868;8.646;2022-11-20T09:06:11;7.40;69.40
71208;DHT22;58938;49.868;8.646;2022-11-20T09:08:37;7.50;69.40
71208;DHT22;58938;49.868;8.646;2022-11-20T09:11:03;7.40;69.50
71208;DHT22;58938;49.868;8.646;2022-11-20T09:13:30;7.50;69.60
71208;DHT22;58938;49.868;8.646;2022-11-20T09:16:02;7.50;69.60
71208;DHT22;58938;49.868;8.646;2022-11-20T09:18:29;7.40;69.70
71208;DHT22;58938;49.868;8.646;2022-11-20T09:20:59;7.50;69.70
71208;DHT22;58938;49.868;8.646;2022-11-20T09:23:25;7.50;69.70
71208;DHT22;58938;49.868;8.646;2022-11-20T09:25:51;7.50;69.70
71208;DHT22;58938;49.868;8.646;2022-11-20T09:28:18;7.50;69.70
71208;DHT22;58938;49.868;8.646;2022-11-20T09:30:44;7.50;69.80
71208;DHT22;58938;49.868;8.646;2022-11-20T09:33:10;7.50;69.80
71208;DHT22;58938;49.868;8.646;2022-11-20T09:35:35;7.50;69.80
71208;DHT22;58938;49.868;8.646;2022-11-20T09:38:07;7.50;69.90
71208;DHT22;58938;49.868;8.646;2022-11-20T09:40:35;7.50;69.70
71208;DHT22;58938;49.868;8.646;2022-11-20T09:48:48;7.50;69.70
71208;DHT22;58938;49.868;8.646;2022-11-20T09:51:59;7.50;69.80
71208;DHT22;58938;49.868;8.646;2022-11-20T09:54:36;7.50;69.80
71208;DHT22;58938;49.868;8.646;2022-11-20T09:57:08;7.50;69.80
71208;DHT22;58938;49.868;8.646;2022-11-20T09:59:38;7.50;69.70
71208;DHT22;58938;49.868;8.646;2022-11-20T10:07:37;7.50;69.80
71208;DHT22;58938;49.868;8.646;2022-11-20T10:10:04;7.50;69.90
71208;DHT22;58938;49.868;8.646;2022-11-20T10:12:56;7.50;69.80
71208;DHT22;58938;49.868;8.646;2022-11-20T10:15:29;7.50;69.80
71208;DHT22;58938;49.868;8.646;2022-11-20T10:23:33;7.60;69.80
71208;DHT22;58938;49.868;8.646;2022-11-20T10:26:28;7.60;69.80
71208;DHT22;58938;49.868;8.646;2022-11-20T10:29:06;7.60;69.90
71208;DHT22;58938;49.868;8.646;2022-11-20T10:31:38;7.60;69.80
71208;DHT22;58938;49.868;8.646;2022-11-20T10:37:04;7.60;69.90
71208;DHT22;58938;49.868;8.646;2022-11-20T10:42:30;7.60;69.90
71208;DHT22;58938;49.868;8.646;2022-11-20T10:47:46;7.70;69.80
71208;DHT22;58938;49.868;8.646;2022-11-20T10:50:21;7.60;69.90
71208;DHT22;58938;49.868;8.646;2022-11-20T10:53:01;7.70;69.90
71208;DHT22;58938;49.868;8.646;2022-11-20T10:55:53;7.70;69.90
71208;DHT22;58938;49.868;8.646;2022-11-20T10:58:41;7.70;69.80
71208;DHT22;58938;49.868;8.646;2022-11-20T11:01:16;7.70;69.90
71208;DHT22;58938;49.868;8.646;2022-11-20T11:03:43;7.70;69.80
71208;DHT22;58938;49.868;8.646;2022-11-20T11:08:53;7.70;69.90
71208;DHT22;58938;49.868;8.646;2022-11-20T11:11:30;7.70;69.90
71208;DHT22;58938;49.868;8.646;2022-11-20T11:14:07;7.70;70.00
71208;DHT22;58938;49.868;8.646;2022-11-20T11:16:33;7.70;70.00
71208;DHT22;58938;49.868;8.646;2022-11-20T11:19:17;7.70;70.10
71208;DHT22;58938;49.868;8.646;2022-11-20T11:21:53;7.70;70.20
71208;DHT22;58938;49.868;8.646;2022-11-20T11:24:27;7.70;70.20
71208;DHT22;58938;49.868;8.646;2022-11-20T11:27:11;7.70;70.40
71208;DHT22;58938;49.868;8.646;2022-11-20T11:29:43;7.70;70.40
71208;DHT22;58938;49.868;8.646;2022-11-20T11:32:19;7.80;70.60
71208;DHT22;58938;49.868;8.646;2022-11-20T11:35:07;7.80;70.50
71208;DHT22;58938;49.868;8.646;2022-11-20T11:37:46;7.80;70.50
71208;DHT22;58938;49.868;8.646;2022-11-20T11:40:14;7.90;70.60
71208;DHT22;58938;49.868;8.646;2022-11-20T11:43:19;7.90;70.70
71208;DHT22;58938;49.868;8.646;2022-11-20T11:46:36;7.90;70.60
71208;DHT22;58938;49.868;8.646;2022-11-20T11:49:18;7.90;70.70
71208;DHT22;58938;49.868;8.646;2022-11-20T11:51:57;7.90;70.70
71208;DHT22;58938;49.868;8.646;2022-11-20T11:57:23;7.90;70.70
71208;DHT22;58938;49.868;8.646;2022-11-20T12:00:06;7.90;70.70
71208;DHT22;58938;49.868;8.646;2022-11-20T12:06:00;8.00;70.70
71208;DHT22;58938;49.868;8.646;2022-11-20T12:13:49;8.10;70.80
71208;DHT22;58938;49.868;8.646;2022-11-20T12:16:19;8.10;70.90
71208;DHT22;58938;49.868;8.646;2022-11-20T12:18:49;8.10;71.10
71208;DHT22;58938;49.868;8.646;2022-11-20T12:24:11;8.10;71.10
71208;DHT22;58938;49.868;8.646;2022-11-20T12:35:13;8.20;71.10
71208;DHT22;58938;49.868;8.646;2022-11-20T12:37:59;8.30;71.10
71208;DHT22;58938;49.868;8.646;2022-11-20T12:43:28;8.30;71.20
71208;DHT22;58938;49.868;8.646;2022-11-20T12:46:18;8.30;71.20
71208;DHT22;58938;49.868;8.646;2022-11-20T12:54:31;8.40;71.40
71208;DHT22;58938;49.868;8.646;2022-11-20T13:05:59;8.40;71.60
71208;DHT22;58938;49.868;8.646;2022-11-20T13:08:38;8.40;71.60
71208;DHT22;58938;49.868;8.646;2022-11-20T13:11:32;8.50;71.60
71208;DHT22;58938;49.868;8.646;2022-11-20T13:16:41;8.60;71.60
71208;DHT22;58938;49.868;8.646;2022-11-20T13:19:16;8.60;71.60
71208;DHT22;58938;49.868;8.646;2022-11-20T13:21:46;8.60;71.70
71208;DHT22;58938;49.868;8.646;2022-11-20T13:29:29;8.60;71.80
71208;DHT22;58938;49.868;8.646;2022-11-20T13:34:38;8.70;72.00
71208;DHT22;58938;49.868;8.646;2022-11-20T13:37:03;8.70;72.00
71208;DHT22;58938;49.868;8.646;2022-11-20T13:39:36;8.70;72.10
71208;DHT22;58938;49.868;8.646;2022-11-20T13:42:22;8.80;72.20
71208;DHT22;58938;49.868;8.646;2022-11-20T13:44:54;8.80;72.20
71208;DHT22;58938;49.868;8.646;2022-11-20T13:47:25;8.80;72.20
71208;DHT22;58938;49.868;8.646;2022-11-20T13:49:56;8.80;72.30
71208;DHT22;58938;49.868;8.646;2022-11-20T13:55:37;8.90;72.30
71208;DHT22;58938;49.868;8.646;2022-11-20T14:00:51;8.90;72.40
71208;DHT22;58938;49.868;8.646;2022-11-20T14:03:21;8.90;72.50
71208;DHT22;58938;49.868;8.646;2022-11-20T14:06:02;8.90;72.50
71208;DHT22;58938;49.868;8.646;2022-11-20T14:08:33;9.00;72.60
71208;DHT22;58938;49.868;8.646;2022-11-20T14:13:37;9.00;72.60
71208;DHT22;58938;49.868;8.646;2022-11-20T14:16:03;9.00;72.70
71208;DHT22;58938;49.868;8.646;2022-11-20T14:18:28;9.00;72.70
71208;DHT22;58938;49.868;8.646;2022-11-20T14:20:54;9.00;72.80
71208;DHT22;58938;49.868;8.646;2022-11-20T14:23:28;9.10;73.00
71208;DHT22;58938;49.868;8.646;2022-11-20T14:25:54;9.00;72.90
71208;DHT22;58938;49.868;8.646;2022-11-20T14:28:25;9.10;72.90
71208;DHT22;58938;49.868;8.646;2022-11-20T14:30:52;9.10;73.00
71208;DHT22;58938;49.868;8.646;2022-11-20T14:33:18;9.10;73.00
71208;DHT22;58938;49.868;8.646;2022-11-20T14:35:50;9.10;73.10
71208;DHT22;58938;49.868;8.646;2022-11-20T14:38:18;9.10;73.10
71208;DHT22;58938;49.868;8.646;2022-11-20T14:40:45;9.20;73.10
71208;DHT22;58938;49.868;8.646;2022-11-20T14:43:25;9.20;73.10
71208;DHT22;58938;49.868;8.646;2022-11-20T14:46:24;9.20;73.20
71208;DHT22;58938;49.868;8.646;2022-11-20T14:48:55;9.20;73.20
71208;DHT22;58938;49.868;8.646;2022-11-20T14:53:52;9.20;73.30
71208;DHT22;58938;49.868;8.646;2022-11-20T14:56:23;9.20;73.30
71208;DHT22;58938;49.868;8.646;2022-11-20T14:58:56;9.20;73.40
71208;DHT22;58938;49.868;8.646;2022-11-20T15:01:26;9.30;73.40
71208;DHT22;58938;49.868;8.646;2022-11-20T15:04:00;9.30;73.40
71208;DHT22;58938;49.868;8.646;2022-11-20T15:06:26;9.30;73.40
71208;DHT22;58938;49.868;8.646;2022-11-20T15:08:52;9.30;73.40
71208;DHT22;58938;49.868;8.646;2022-11-20T15:11:25;9.30;73.50
71208;DHT22;58938;49.868;8.646;2022-11-20T15:13:52;9.30;73.50
71208;DHT22;58938;49.868;8.646;2022-11-20T15:16:20;9.30;73.60
71208;DHT22;58938;49.868;8.646;2022-11-20T15:18:46;9.30;73.50
71208;DHT22;58938;49.868;8.646;2022-11-20T15:21:14;9.30;73.60
71208;DHT22;58938;49.868;8.646;2022-11-20T15:23:42;9.40;73.50
71208;DHT22;58938;49.868;8.646;2022-11-20T15:26:09;9.40;73.60
71208;DHT22;58938;49.868;8.646;2022-11-20T15:28:46;9.40;73.60
71208;DHT22;58938;49.868;8.646;2022-11-20T15:31:21;9.40;73.60
71208;DHT22;58938;49.868;8.646;2022-11-20T15:33:46;9.40;73.60
71208;DHT22;58938;49.868;8.646;2022-11-20T15:36:12;9.40;73.60
71208;DHT22;58938;49.868;8.646;2022-11-20T15:38:38;9.40;73.60
71208;DHT22;58938;49.868;8.646;2022-11-20T15:41:04;9.40;73.60
71208;DHT22;58938;49.868;8.646;2022-11-20T15:43:29;9.40;73.70
71208;DHT22;58938;49.868;8.646;2022-11-20T15:45:59;9.40;73.70
71208;DHT22;58938;49.868;8.646;2022-11-20T15:48:28;9.40;73.70
71208;DHT22;58938;49.868;8.646;2022-11-20T15:53:29;9.40;73.70
71208;DHT22;58938;49.868;8.646;2022-11-20T15:55:55;9.40;73.70
71208;DHT22;58938;49.868;8.646;2022-11-20T15:58:21;9.40;73.70
71208;DHT22;58938;49.868;8.646;2022-11-20T16:00:48;9.40;73.70
71208;DHT22;58938;49.868;8.646;2022-11-20T16:03:16;9.40;73.70
71208;DHT22;58938;49.868;8.646;2022-11-20T16:05:42;9.50;73.70
71208;DHT22;58938;49.868;8.646;2022-11-20T16:08:08;9.40;73.70
71208;DHT22;58938;49.868;8.646;2022-11-20T16:10:33;9.50;73.60
71208;DHT22;58938;49.868;8.646;2022-11-20T16:13:00;9.50;73.70
71208;DHT22;58938;49.868;8.646;2022-11-20T16:15:55;9.50;73.60
71208;DHT22;58938;49.868;8.646;2022-11-20T16:18:22;9.50;73.60
71208;DHT22;58938;49.868;8.646;2022-11-20T16:20:50;9.50;73.50
71208;DHT22;58938;49.868;8.646;2022-11-20T16:23:16;9.50;73.50
71208;DHT22;58938;49.868;8.646;2022-11-20T16:25:43;9.50;73.50
71208;DHT22;58938;49.868;8.646;2022-11-20T16:28:09;9.50;73.40
71208;DHT22;58938;49.868;8.646;2022-11-20T16:30:35;9.50;73.40
71208;DHT22;58938;49.868;8.646;2022-11-20T16:33:03;9.50;73.30
71208;DHT22;58938;49.868;8.646;2022-11-20T16:35:32;9.50;73.30
71208;DHT22;58938;49.868;8.646;2022-11-20T16:37:58;9.50;73.20
71208;DHT22;58938;49.868;8.646;2022-11-20T16:40:24;9.50;73.10
71208;DHT22;58938;49.868;8.646;2022-11-20T16:42:51;9.50;73.20
71208;DHT22;58938;49.868;8.646;2022-11-20T16:45:16;9.50;73.10
71208;DHT22;58938;49.868;8.646;2022-11-20T16:47:42;9.50;73.10
71208;DHT22;58938;49.868;8.646;2022-11-20T16:50:12;9.50;73.10
71208;DHT22;58938;49.868;8.646;2022-11-20T16:52:38;9.50;73.00
71208;DHT22;58938;49.868;8.646;2022-11-20T16:55:04;9.50;72.90
71208;DHT22;58938;49.868;8.646;2022-11-20T16:57:31;9.60;72.90
71208;DHT22;58938;49.868;8.646;2022-11-20T16:59:58;9.50;72.80
71208;DHT22;58938;49.868;8.646;2022-11-20T17:02:25;9.50;72.80
71208;DHT22;58938;49.868;8.646;2022-11-20T17:04:51;9.60;72.70
71208;DHT22;58938;49.868;8.646;2022-11-20T17:07:17;9.50;72.60
71208;DHT22;58938;49.868;8.646;2022-11-20T17:09:42;9.60;72.60
71208;DHT22;58938;49.868;8.646;2022-11-20T17:12:08;9.60;72.50
71208;DHT22;58938;49.868;8.646;2022-11-20T17:14:34;9.60;72.50
71208;DHT22;58938;49.868;8.646;2022-11-20T17:17:00;9.60;72.50
71208;DHT22;58938;49.868;8.646;2022-11-20T17:19:26;9.60;72.40
71208;DHT22;58938;49.868;8.646;2022-11-20T17:21:51;9.60;72.30
71208;DHT22;58938;49.868;8.646;2022-11-20T17:24:17;9.60;72.00
71208;DHT22;58938;49.868;8.646;2022-11-20T17:26:47;9.60;72.10
71208;DHT22;58938;49.868;8.646;2022-11-20T17:29:15;9.60;71.90
71208;DHT22;58938;49.868;8.646;2022-11-20T17:31:42;9.60;71.90
71208;DHT22;58938;49.868;8.646;2022-11-20T17:34:11;9.50;71.80
71208;DHT22;58938;49.868;8.646;2022-11-20T17:36:38;9.60;71.60